Aviation Digital Data Service (ADDS)

Output produced by METARs form (0644 UTC 19 November 2017)
found at http://aviationweather.gov/adds/metars/
 
KJAN 190554Z AUTO 34011KT 10SM CLR 12/03 A3011 RMK AO2 SLP192 60000 T01170033 10211 20117 402780117 51026